Maersk Sentosa — WSEP — position and weather

sailwx.info

Track history (hours):
 
Tides and Currents Weather Stations Pressure Air Temp Water Temp Dewpoint Dewpoint Depression Visibility Wind Speed Wind Dir Waves Ship Positions

Maersk Sentosa

Owner: Maersk Line, Limited, Norfolk, VA. More information available from US FCC via Universal Licensing System and Coast Guard Vessel Documentation Center.

Last reported at 2017-Dec-16 09:08 UTC. Time now 2017-Dec-18 20:19 UTC.
Position N 40°24' W 073°29'.

Length 319 m; draft 9.3 m.

Type: Ship (hazmat cat B). MMSI: 369246000.

Date/timePositionNaut miles runAvg speedWind from/ knotsBaromVisibWave heightAir tempDewpointWater temp
2017-Dec-16 09:08N 40°24' W 073°29'2 9.6
2017-Dec-16 08:56N 40°24' W 073°32'4 9.6
2017-Dec-16 08:28N 40°25' W 073°37'5 9.5
2017-Dec-16 07:59N 40°26' W 073°43'4 9.2
2017-Dec-16 07:30N 40°26' W 073°49'4 9.1
2017-Dec-16 07:00N 40°29' W 073°54'611.3
2017-Dec-16 06:30N 40°31' W 074°01'714.1
2017-Dec-16 06:00N 40°38' W 074°03'3 5.7
2017-Dec-16 05:31N 40°39' W 074°07'2 3.8
2017-Dec-16 05:00N 40°40' W 074°08'1 2.0
2017-Dec-16 04:29N 40°41' W 074°09'0 0.0
2017-Dec-16 03:59N 40°41' W 074°09'0 0.0
2017-Dec-16 03:29N 40°41' W 074°09'0 0.0
2017-Dec-16 02:50N 40°41' W 074°09'0 0.0
2017-Dec-16 02:29N 40°41' W 074°09'0 0.0
2017-Dec-16 01:59N 40°41' W 074°09'0 0.0
2017-Dec-16 01:29N 40°41' W 074°09'0 0.0
2017-Dec-16 00:59N 40°41' W 074°09'0 0.0
2017-Dec-16 00:29N 40°41' W 074°09'0 0.0
2017-Dec-15 22:53N 40°41' W 074°09'0 0.0
2017-Dec-15 22:11N 40°41' W 074°09'0 0.0
2017-Dec-15 21:53N 40°41' W 074°09'0 0.0
2017-Dec-15 20:29N 40°41' W 074°09'0 0.0
2017-Dec-15 19:17N 40°41' W 074°09'0 0.0
2017-Dec-15 17:53N 40°41' W 074°09'0 0.0
2017-Dec-15 17:29N 40°41' W 074°09'0 0.0
2017-Dec-15 16:47N 40°41' W 074°09'0 0.0
2017-Dec-15 16:14N 40°41' W 074°09'0 0.0
2017-Dec-15 15:59N 40°41' W 074°09'0 0.0
2017-Dec-15 15:26N 40°41' W 074°09'0 0.0
2017-Dec-15 14:47N 40°41' W 074°09'0 0.0
2017-Dec-15 14:26N 40°41' W 074°09'0 0.0
2017-Dec-15 13:23N 40°41' W 074°09'0 0.0
2017-Dec-15 12:59N 40°41' W 074°09'0 0.0
2017-Dec-15 12:29N 40°41' W 074°09'0 0.0
2017-Dec-15 11:59N 40°41' W 074°09'0 0.3
2017-Dec-15 11:30N 40°41' W 074°09'2 3.4
2017-Dec-15 11:00N 40°39' W 074°09'2 4.1
2017-Dec-15 10:30N 40°39' W 074°06'3 6.2
2017-Dec-15 10:00N 40°37' W 074°03'3 6.9
2017-Dec-15 09:30N 40°34' W 074°02'713.1
2017-Dec-15 09:00N 40°29' W 073°55'5 9.7
2017-Dec-15 08:30N 40°27' W 073°49'4 6.4
2017-Dec-15 07:56N 40°24' W 073°47'3 6.1
2017-Dec-15 07:28N 40°22' W 073°46'3 5.9
2017-Dec-15 06:58N 40°19' W 073°45'3010.6
2017-Dec-15 04:06N 39°48' W 073°41'215.0
2017-Dec-15 03:57N 39°46' W 073°41'40 4.1
2017-Dec-14 18:00N 39°06' W 073°48'33814.1 250 / 271008.5 5.4 12.0-3.913.0
2017-Dec-13 18:00N 33°48' W 076°12'23516.6 310 / 251012.810.8 16.010.425.8
2017-Dec-13 03:52N 31°56' W 080°18'513.0
2017-Dec-13 03:29N 31°56' W 080°24'5 9.6
2017-Dec-13 03:00N 31°56' W 080°30'5 9.3
2017-Dec-13 02:30N 31°56' W 080°35'5 9.4
2017-Dec-13 02:00N 31°57' W 080°41'510.5
2017-Dec-13 01:30N 31°59' W 080°46'713.8
2017-Dec-13 01:00N 32°02' W 080°54'612.5
2017-Dec-13 00:31N 32°06' W 080°60'4 8.9
2017-Dec-13 00:00N 32°05' W 081°05'4 7.4
2017-Dec-12 23:30N 32°07' W 081°08'0 0.4
2017-Dec-12 23:00N 32°07' W 081°08'0 0.0
2017-Dec-12 22:30N 32°07' W 081°08'0 0.0
2017-Dec-12 22:00N 32°07' W 081°08'0 0.0
2017-Dec-12 21:29N 32°07' W 081°08'0 0.0
2017-Dec-12 20:59N 32°07' W 081°08'0 0.0
2017-Dec-12 20:29N 32°07' W 081°08'0 0.0
2017-Dec-12 19:59N 32°07' W 081°08'0 0.0
2017-Dec-12 19:29N 32°07' W 081°08'0 0.0
2017-Dec-12 18:59N 32°07' W 081°08'0 0.0
2017-Dec-12 18:29N 32°07' W 081°08'0 0.0
2017-Dec-12 17:59N 32°07' W 081°08'0 0.0
2017-Dec-12 17:29N 32°07' W 081°08'0 0.0
2017-Dec-12 16:59N 32°07' W 081°08'0 0.0
2017-Dec-12 16:29N 32°07' W 081°08'0 0.0
2017-Dec-12 15:59N 32°07' W 081°08'0 0.0
2017-Dec-12 15:29N 32°07' W 081°08'0 0.0
2017-Dec-12 14:59N 32°07' W 081°08'0 0.0
2017-Dec-12 14:17N 32°07' W 081°08'0 0.0
2017-Dec-12 13:53N 32°07' W 081°08'0 0.0
2017-Dec-12 13:29N 32°07' W 081°08'0 0.0
2017-Dec-12 12:59N 32°07' W 081°08'0 0.0
2017-Dec-12 12:17N 32°07' W 081°08'0 0.0
2017-Dec-12 11:59N 32°07' W 081°08'0 0.0
2017-Dec-12 11:29N 32°07' W 081°08'0 0.0
2017-Dec-12 10:53N 32°07' W 081°08'0 0.0
2017-Dec-12 10:29N 32°07' W 081°08'1 1.1
2017-Dec-12 10:00N 32°08' W 081°08'2 3.4
2017-Dec-12 09:30N 32°06' W 081°07'3 6.0
2017-Dec-12 09:00N 32°05' W 081°04'3 6.6
2017-Dec-12 08:30N 32°06' W 081°01'612.2
2017-Dec-12 08:00N 32°02' W 080°55'612.4
2017-Dec-12 07:30N 32°01' W 080°48'713.9
2017-Dec-12 07:00N 31°57' W 080°41'4 7.6
2017-Dec-12 06:30N 31°56' W 080°37'2 3.4
2017-Dec-12 05:57N 31°57' W 080°35'0 0.2
2017-Dec-12 05:30N 31°57' W 080°35'0 0.0
2017-Dec-12 04:55N 31°57' W 080°35'0 0.0
2017-Dec-12 04:25N 31°57' W 080°35'0 0.0
2017-Dec-12 03:55N 31°57' W 080°35'0 0.0
2017-Dec-12 03:25N 31°57' W 080°35'0 0.1
2017-Dec-12 02:55N 31°57' W 080°35'0 0.0
2017-Dec-12 02:25N 31°57' W 080°35'0 0.0
2017-Dec-12 01:55N 31°57' W 080°35'0 0.1
2017-Dec-12 01:25N 31°57' W 080°35'0 0.0
2017-Dec-12 00:49N 31°57' W 080°35'0 0.0
2017-Dec-12 00:25N 31°57' W 080°35'0 0.0
2017-Dec-11 23:55N 31°57' W 080°35'0 0.0
2017-Dec-11 23:25N 31°57' W 080°35'0 0.0
2017-Dec-11 22:55N 31°57' W 080°35'0 0.0
2017-Dec-11 22:25N 31°57' W 080°35'0 0.0
2017-Dec-11 21:55N 31°57' W 080°35'0 0.0
2017-Dec-11 21:25N 31°57' W 080°35'0 0.0
2017-Dec-11 20:55N 31°57' W 080°35'0 0.0
2017-Dec-11 20:25N 31°57' W 080°35'0 0.0
2017-Dec-11 19:55N 31°57' W 080°35'0 0.1
2017-Dec-11 19:25N 31°57' W 080°35'0 0.1
2017-Dec-11 18:55N 31°57' W 080°35'0 0.0
2017-Dec-11 18:01N 31°57' W 080°35'0 0.1
2017-Dec-11 17:55N 31°57' W 080°35'0 0.0
2017-Dec-11 17:25N 31°57' W 080°35'0 0.0
2017-Dec-11 16:49N 31°57' W 080°35'0 0.0
2017-Dec-11 16:25N 31°57' W 080°35'0 0.0
2017-Dec-11 15:55N 31°57' W 080°35'0 0.1
2017-Dec-11 15:19N 31°57' W 080°35'0 0.0
2017-Dec-11 14:55N 31°57' W 080°35'0 0.0
2017-Dec-11 14:25N 31°57' W 080°35'0 0.0
2017-Dec-11 13:49N 31°57' W 080°35'0 0.0
2017-Dec-11 13:19N 31°57' W 080°35'0 0.0
2017-Dec-11 12:55N 31°57' W 080°35'0 0.0
2017-Dec-11 12:25N 31°57' W 080°35'0 0.0
2017-Dec-11 11:55N 31°57' W 080°35'0 0.0
2017-Dec-11 11:25N 31°57' W 080°35'0 0.0
2017-Dec-11 10:55N 31°57' W 080°35'0 0.0
2017-Dec-11 10:25N 31°57' W 080°35'0 0.0
2017-Dec-11 09:55N 31°57' W 080°35'0 0.0
2017-Dec-11 09:25N 31°57' W 080°35'0 0.0
2017-Dec-11 08:55N 31°57' W 080°35'0 0.0
2017-Dec-11 08:25N 31°57' W 080°35'0 0.0
2017-Dec-11 07:55N 31°57' W 080°35'0 0.1
2017-Dec-11 07:01N 31°57' W 080°35'0 0.2
2017-Dec-11 06:49N 31°57' W 080°35'0 0.0
2017-Dec-11 06:25N 31°57' W 080°35'0 0.0
2017-Dec-11 05:55N 31°57' W 080°35'0 0.0
2017-Dec-11 05:13N 31°57' W 080°35'0 0.1
2017-Dec-11 04:55N 31°57' W 080°35'0 0.1
2017-Dec-11 04:25N 31°57' W 080°35'0 0.0
2017-Dec-11 03:49N 31°57' W 080°35'0 0.0
2017-Dec-11 03:25N 31°57' W 080°35'0 0.0
2017-Dec-11 02:55N 31°57' W 080°35'0 0.0
2017-Dec-11 02:25N 31°57' W 080°35'0 0.0
2017-Dec-11 01:55N 31°57' W 080°35'0 0.0
2017-Dec-11 01:19N 31°57' W 080°35'0 0.1
2017-Dec-11 00:55N 31°57' W 080°35'0 0.1
2017-Dec-11 00:25N 31°57' W 080°35'0 0.1
2017-Dec-10 23:55N 31°57' W 080°35'0 0.0
2017-Dec-10 23:13N 31°57' W 080°35'0 0.0
2017-Dec-10 22:49N 31°57' W 080°35'0 0.0
2017-Dec-10 22:25N 31°57' W 080°35'0 0.0
2017-Dec-10 21:37N 31°57' W 080°35'0 0.0
2017-Dec-10 20:07N 31°57' W 080°35'0 0.2
2017-Dec-10 19:55N 31°57' W 080°35'2 5.8
2017-Dec-10 19:29N 31°58' W 080°32'10814.4
2017-Dec-10 12:00N 32°42' W 078°36'8914.8 320 / 221022.0 5.4 7.0-4.623.8
2017-Dec-10 06:00N 33°36' W 077°12'8814.7 300 / 241014.4 5.4 6.0 3.624.0
2017-Dec-10 00:00N 34°30' W 075°48'13712.1 350 / 251011.3 2.2 8.0 5.823.9
2017-Dec-09 12:38N 36°47' W 075°44'4 9.6
2017-Dec-09 12:16N 36°49' W 075°48'4 9.4
2017-Dec-09 11:51N 36°51' W 075°52'3 9.2
2017-Dec-09 11:30N 36°54' W 075°55'7 9.3
2017-Dec-09 10:45N 36°57' W 076°02'2 8.9
2017-Dec-09 10:30N 36°58' W 076°05'4 8.7
2017-Dec-09 10:00N 36°59' W 076°10'810.1
2017-Dec-09 09:11N 36°58' W 076°20'2 9.0
2017-Dec-09 09:00N 36°56' W 076°20'4 8.1
2017-Dec-09 08:30N 36°52' W 076°19'1 1.0
2017-Dec-09 08:00N 36°51' W 076°20'0 0.0
2017-Dec-09 07:30N 36°51' W 076°20'0 0.0
2017-Dec-09 06:57N 36°51' W 076°20'0 0.0
2017-Dec-09 06:30N 36°51' W 076°20'0 0.0
2017-Dec-09 05:57N 36°51' W 076°20'0 0.0
2017-Dec-09 05:30N 36°51' W 076°20'0 0.0
2017-Dec-09 05:00N 36°51' W 076°20'0 0.0
2017-Dec-09 04:30N 36°51' W 076°20'0 0.0
2017-Dec-09 04:00N 36°51' W 076°20'0 0.0
2017-Dec-09 03:30N 36°51' W 076°20'0 0.0
2017-Dec-09 03:00N 36°51' W 076°20'0 0.0
2017-Dec-09 02:30N 36°51' W 076°20'0 0.0
2017-Dec-09 02:00N 36°51' W 076°20'0 0.0
2017-Dec-09 01:30N 36°51' W 076°20'0 0.0
2017-Dec-09 00:54N 36°51' W 076°20'0 0.0
2017-Dec-09 00:30N 36°51' W 076°20'0 0.0
2017-Dec-08 23:51N 36°51' W 076°20'0 0.0
2017-Dec-08 23:30N 36°51' W 076°20'0 0.0
2017-Dec-08 23:00N 36°51' W 076°20'0 0.0
2017-Dec-08 22:30N 36°51' W 076°20'0 0.0
2017-Dec-08 21:57N 36°51' W 076°20'0 0.0
2017-Dec-08 21:27N 36°51' W 076°20'0 0.0
2017-Dec-08 21:00N 36°51' W 076°20'0 0.0
2017-Dec-08 20:30N 36°51' W 076°20'0 0.0
2017-Dec-08 19:57N 36°51' W 076°20'0 0.0
2017-Dec-08 19:30N 36°51' W 076°20'0 0.0
2017-Dec-08 19:00N 36°51' W 076°20'0 0.0
2017-Dec-08 18:30N 36°51' W 076°20'0 0.0
2017-Dec-08 18:00N 36°51' W 076°20'0 0.0
2017-Dec-08 17:30N 36°51' W 076°20'0 0.0
2017-Dec-08 16:54N 36°51' W 076°20'0 0.0
2017-Dec-08 16:30N 36°51' W 076°20'0 0.0
2017-Dec-08 16:00N 36°51' W 076°20'0 0.0
2017-Dec-08 15:30N 36°51' W 076°20'0 0.0
2017-Dec-08 15:00N 36°51' W 076°20'0 0.2
2017-Dec-08 14:30N 36°51' W 076°20'2 3.8
2017-Dec-08 14:00N 36°53' W 076°20'5 9.5
2017-Dec-08 13:30N 36°58' W 076°20'611.1
2017-Dec-08 13:00N 37°00' W 076°14'816.5
2017-Dec-08 12:30N 36°58' W 076°04'3 6.2
2017-Dec-08 12:00N 36°60' W 076°01'11219.2
2017-Dec-08 06:11N 38°50' W 076°24'522.6
2017-Dec-08 05:59N 38°54' W 076°24'917.8
2017-Dec-08 05:29N 39°03' W 076°23'713.9
2017-Dec-08 05:00N 39°10' W 076°25'612.8
2017-Dec-08 04:30N 39°13' W 076°32'2 3.1
2017-Dec-08 04:00N 39°15' W 076°33'0 0.3
2017-Dec-08 03:30N 39°15' W 076°33'0 0.0
2017-Dec-08 03:00N 39°15' W 076°33'0 0.0
2017-Dec-08 02:30N 39°15' W 076°33'0 0.0
2017-Dec-08 01:59N 39°15' W 076°33'0 0.0
2017-Dec-08 01:29N 39°15' W 076°33'0 0.0
2017-Dec-08 00:59N 39°15' W 076°33'0 0.0
2017-Dec-08 00:29N 39°15' W 076°33'0 0.0
2017-Dec-07 23:59N 39°15' W 076°33'0 0.0
2017-Dec-07 23:29N 39°15' W 076°33'0 0.0
2017-Dec-07 22:56N 39°15' W 076°33'0 0.0
2017-Dec-07 22:29N 39°15' W 076°33'0 0.0
2017-Dec-07 21:59N 39°15' W 076°33'0 0.0
2017-Dec-07 21:29N 39°15' W 076°33'0 0.0
2017-Dec-07 20:59N 39°15' W 076°33'0 0.0
2017-Dec-07 20:29N 39°15' W 076°33'0 0.0
2017-Dec-07 19:59N 39°15' W 076°33'0 0.0
2017-Dec-07 19:29N 39°15' W 076°33'0 0.0
2017-Dec-07 18:59N 39°15' W 076°33'0 0.0
2017-Dec-07 18:29N 39°15' W 076°33'0 0.0
2017-Dec-07 17:59N 39°15' W 076°33'0 0.0
2017-Dec-07 17:29N 39°15' W 076°33'0 0.0
2017-Dec-07 16:59N 39°15' W 076°33'0 0.0
2017-Dec-07 16:29N 39°15' W 076°33'0 0.0
2017-Dec-07 15:59N 39°15' W 076°33'0 0.0
2017-Dec-07 15:29N 39°15' W 076°33'0 0.0
2017-Dec-07 14:59N 39°15' W 076°33'0 0.0
2017-Dec-07 14:29N 39°15' W 076°33'0 0.0
2017-Dec-07 13:59N 39°15' W 076°33'0 0.0
2017-Dec-07 13:29N 39°15' W 076°33'0 0.0
2017-Dec-07 12:59N 39°15' W 076°33'0 0.0
2017-Dec-07 12:29N 39°15' W 076°33'0 0.0
2017-Dec-07 11:59N 39°15' W 076°33'0 0.0
2017-Dec-07 11:29N 39°15' W 076°33'0 0.0
2017-Dec-07 10:59N 39°15' W 076°33'1 1.3
2017-Dec-07 10:31N 39°14' W 076°33'3 5.3
2017-Dec-07 10:00N 39°12' W 076°31'4 8.2
2017-Dec-07 09:30N 39°10' W 076°26'713.5
2017-Dec-07 09:00N 39°04' W 076°24'815.6
2017-Dec-07 08:30N 38°56' W 076°23'1020.0
2017-Dec-07 08:00N 38°46' W 076°26'3620.5
2017-Dec-07 06:16N 38°12' W 076°14'621.8
2017-Dec-07 05:58N 38°05' W 076°13'5719.0
2017-Dec-07 02:57N 37°08' W 076°08'919.5
2017-Dec-07 02:30N 37°01' W 076°03'611.3
2017-Dec-07 02:00N 36°57' W 075°58'4 7.9
2017-Dec-07 01:30N 36°54' W 075°54'4 8.6
2017-Dec-07 01:00N 36°52' W 075°50'6 9.4
2017-Dec-07 00:24N 36°49' W 075°43'109 8.1
2017-Dec-06 11:00N 38°18' W 074°24'   340 / 71014.9 5.4 11.0 9.014.9
Track history (hours):
 
Tides and Currents Weather Stations Pressure Air Temp Water Temp Dewpoint Dewpoint Depression Visibility Wind Speed Wind Dir Waves Ship Positions

Maersk Sentosa

Owner: Maersk Line, Limited, Norfolk, VA. More information available from US FCC via Universal Licensing System and Coast Guard Vessel Documentation Center.

Last reported at 2017-Dec-16 09:08 UTC. Time now 2017-Dec-18 20:19 UTC.
Position N 40°24' W 073°29'.

Length 319 m; draft 9.3 m.

Type: Ship (hazmat cat B). MMSI: 369246000.

Date/timePositionNaut miles runAvg speedWind from/ knotsBaromVisibWave heightAir tempDewpointWater temp
2017-Dec-16 09:08N 40°24' W 073°29'2 9.6
2017-Dec-16 08:56N 40°24' W 073°32'4 9.6
2017-Dec-16 08:28N 40°25' W 073°37'5 9.5
2017-Dec-16 07:59N 40°26' W 073°43'4 9.2
2017-Dec-16 07:30N 40°26' W 073°49'4 9.1
2017-Dec-16 07:00N 40°29' W 073°54'611.3
2017-Dec-16 06:30N 40°31' W 074°01'714.1
2017-Dec-16 06:00N 40°38' W 074°03'3 5.7
2017-Dec-16 05:31N 40°39' W 074°07'2 3.8
2017-Dec-16 05:00N 40°40' W 074°08'1 2.0
2017-Dec-16 04:29N 40°41' W 074°09'0 0.0
2017-Dec-16 03:59N 40°41' W 074°09'0 0.0
2017-Dec-16 03:29N 40°41' W 074°09'0 0.0
2017-Dec-16 02:50N 40°41' W 074°09'0 0.0
2017-Dec-16 02:29N 40°41' W 074°09'0 0.0
2017-Dec-16 01:59N 40°41' W 074°09'0 0.0
2017-Dec-16 01:29N 40°41' W 074°09'0 0.0
2017-Dec-16 00:59N 40°41' W 074°09'0 0.0
2017-Dec-16 00:29N 40°41' W 074°09'0 0.0
2017-Dec-15 22:53N 40°41' W 074°09'0 0.0
2017-Dec-15 22:11N 40°41' W 074°09'0 0.0
2017-Dec-15 21:53N 40°41' W 074°09'0 0.0
2017-Dec-15 20:29N 40°41' W 074°09'0 0.0
2017-Dec-15 19:17N 40°41' W 074°09'0 0.0
2017-Dec-15 17:53N 40°41' W 074°09'0 0.0
2017-Dec-15 17:29N 40°41' W 074°09'0 0.0
2017-Dec-15 16:47N 40°41' W 074°09'0 0.0
2017-Dec-15 16:14N 40°41' W 074°09'0 0.0
2017-Dec-15 15:59N 40°41' W 074°09'0 0.0
2017-Dec-15 15:26N 40°41' W 074°09'0 0.0
2017-Dec-15 14:47N 40°41' W 074°09'0 0.0
2017-Dec-15 14:26N 40°41' W 074°09'0 0.0
2017-Dec-15 13:23N 40°41' W 074°09'0 0.0
2017-Dec-15 12:59N 40°41' W 074°09'0 0.0
2017-Dec-15 12:29N 40°41' W 074°09'0 0.0
2017-Dec-15 11:59N 40°41' W 074°09'0 0.3
2017-Dec-15 11:30N 40°41' W 074°09'2 3.4
2017-Dec-15 11:00N 40°39' W 074°09'2 4.1
2017-Dec-15 10:30N 40°39' W 074°06'3 6.2
2017-Dec-15 10:00N 40°37' W 074°03'3 6.9
2017-Dec-15 09:30N 40°34' W 074°02'713.1
2017-Dec-15 09:00N 40°29' W 073°55'5 9.7
2017-Dec-15 08:30N 40°27' W 073°49'4 6.4
2017-Dec-15 07:56N 40°24' W 073°47'3 6.1
2017-Dec-15 07:28N 40°22' W 073°46'3 5.9
2017-Dec-15 06:58N 40°19' W 073°45'3010.6
2017-Dec-15 04:06N 39°48' W 073°41'215.0
2017-Dec-15 03:57N 39°46' W 073°41'40 4.1
2017-Dec-14 18:00N 39°06' W 073°48'33814.1 250 / 271008.5 5.4 12.0-3.913.0
2017-Dec-13 18:00N 33°48' W 076°12'23516.6 310 / 251012.810.8 16.010.425.8
2017-Dec-13 03:52N 31°56' W 080°18'513.0
2017-Dec-13 03:29N 31°56' W 080°24'5 9.6
2017-Dec-13 03:00N 31°56' W 080°30'5 9.3
2017-Dec-13 02:30N 31°56' W 080°35'5 9.4
2017-Dec-13 02:00N 31°57' W 080°41'510.5
2017-Dec-13 01:30N 31°59' W 080°46'713.8
2017-Dec-13 01:00N 32°02' W 080°54'612.5
2017-Dec-13 00:31N 32°06' W 080°60'4 8.9
2017-Dec-13 00:00N 32°05' W 081°05'4 7.4
2017-Dec-12 23:30N 32°07' W 081°08'0 0.4
2017-Dec-12 23:00N 32°07' W 081°08'0 0.0
2017-Dec-12 22:30N 32°07' W 081°08'0 0.0
2017-Dec-12 22:00N 32°07' W 081°08'0 0.0
2017-Dec-12 21:29N 32°07' W 081°08'0 0.0
2017-Dec-12 20:59N 32°07' W 081°08'0 0.0
2017-Dec-12 20:29N 32°07' W 081°08'0 0.0
2017-Dec-12 19:59N 32°07' W 081°08'0 0.0
2017-Dec-12 19:29N 32°07' W 081°08'0 0.0
2017-Dec-12 18:59N 32°07' W 081°08'0 0.0
2017-Dec-12 18:29N 32°07' W 081°08'0 0.0
2017-Dec-12 17:59N 32°07' W 081°08'0 0.0
2017-Dec-12 17:29N 32°07' W 081°08'0 0.0
2017-Dec-12 16:59N 32°07' W 081°08'0 0.0
2017-Dec-12 16:29N 32°07' W 081°08'0 0.0
2017-Dec-12 15:59N 32°07' W 081°08'0 0.0
2017-Dec-12 15:29N 32°07' W 081°08'0 0.0
2017-Dec-12 14:59N 32°07' W 081°08'0 0.0
2017-Dec-12 14:17N 32°07' W 081°08'0 0.0
2017-Dec-12 13:53N 32°07' W 081°08'0 0.0
2017-Dec-12 13:29N 32°07' W 081°08'0 0.0
2017-Dec-12 12:59N 32°07' W 081°08'0 0.0
2017-Dec-12 12:17N 32°07' W 081°08'0 0.0
2017-Dec-12 11:59N 32°07' W 081°08'0 0.0
2017-Dec-12 11:29N 32°07' W 081°08'0 0.0
2017-Dec-12 10:53N 32°07' W 081°08'0 0.0
2017-Dec-12 10:29N 32°07' W 081°08'1 1.1
2017-Dec-12 10:00N 32°08' W 081°08'2 3.4
2017-Dec-12 09:30N 32°06' W 081°07'3 6.0
2017-Dec-12 09:00N 32°05' W 081°04'3 6.6
2017-Dec-12 08:30N 32°06' W 081°01'612.2
2017-Dec-12 08:00N 32°02' W 080°55'612.4
2017-Dec-12 07:30N 32°01' W 080°48'713.9
2017-Dec-12 07:00N 31°57' W 080°41'4 7.6
2017-Dec-12 06:30N 31°56' W 080°37'2 3.4
2017-Dec-12 05:57N 31°57' W 080°35'0 0.2
2017-Dec-12 05:30N 31°57' W 080°35'0 0.0
2017-Dec-12 04:55N 31°57' W 080°35'0 0.0
2017-Dec-12 04:25N 31°57' W 080°35'0 0.0
2017-Dec-12 03:55N 31°57' W 080°35'0 0.0
2017-Dec-12 03:25N 31°57' W 080°35'0 0.1
2017-Dec-12 02:55N 31°57' W 080°35'0 0.0
2017-Dec-12 02:25N 31°57' W 080°35'0 0.0
2017-Dec-12 01:55N 31°57' W 080°35'0 0.1
2017-Dec-12 01:25N 31°57' W 080°35'0 0.0
2017-Dec-12 00:49N 31°57' W 080°35'0 0.0
2017-Dec-12 00:25N 31°57' W 080°35'0 0.0
2017-Dec-11 23:55N 31°57' W 080°35'0 0.0
2017-Dec-11 23:25N 31°57' W 080°35'0 0.0
2017-Dec-11 22:55N 31°57' W 080°35'0 0.0
2017-Dec-11 22:25N 31°57' W 080°35'0 0.0
2017-Dec-11 21:55N 31°57' W 080°35'0 0.0
2017-Dec-11 21:25N 31°57' W 080°35'0 0.0
2017-Dec-11 20:55N 31°57' W 080°35'0 0.0
2017-Dec-11 20:25N 31°57' W 080°35'0 0.0
2017-Dec-11 19:55N 31°57' W 080°35'0 0.1
2017-Dec-11 19:25N 31°57' W 080°35'0 0.1
2017-Dec-11 18:55N 31°57' W 080°35'0 0.0
2017-Dec-11 18:01N 31°57' W 080°35'0 0.1
2017-Dec-11 17:55N 31°57' W 080°35'0 0.0
2017-Dec-11 17:25N 31°57' W 080°35'0 0.0
2017-Dec-11 16:49N 31°57' W 080°35'0 0.0
2017-Dec-11 16:25N 31°57' W 080°35'0 0.0
2017-Dec-11 15:55N 31°57' W 080°35'0 0.1
2017-Dec-11 15:19N 31°57' W 080°35'0 0.0
2017-Dec-11 14:55N 31°57' W 080°35'0 0.0
2017-Dec-11 14:25N 31°57' W 080°35'0 0.0
2017-Dec-11 13:49N 31°57' W 080°35'0 0.0
2017-Dec-11 13:19N 31°57' W 080°35'0 0.0
2017-Dec-11 12:55N 31°57' W 080°35'0 0.0
2017-Dec-11 12:25N 31°57' W 080°35'0 0.0
2017-Dec-11 11:55N 31°57' W 080°35'0 0.0
2017-Dec-11 11:25N 31°57' W 080°35'0 0.0
2017-Dec-11 10:55N 31°57' W 080°35'0 0.0
2017-Dec-11 10:25N 31°57' W 080°35'0 0.0
2017-Dec-11 09:55N 31°57' W 080°35'0 0.0
2017-Dec-11 09:25N 31°57' W 080°35'0 0.0
2017-Dec-11 08:55N 31°57' W 080°35'0 0.0
2017-Dec-11 08:25N 31°57' W 080°35'0 0.0
2017-Dec-11 07:55N 31°57' W 080°35'0 0.1
2017-Dec-11 07:01N 31°57' W 080°35'0 0.2
2017-Dec-11 06:49N 31°57' W 080°35'0 0.0
2017-Dec-11 06:25N 31°57' W 080°35'0 0.0
2017-Dec-11 05:55N 31°57' W 080°35'0 0.0
2017-Dec-11 05:13N 31°57' W 080°35'0 0.1
2017-Dec-11 04:55N 31°57' W 080°35'0 0.1
2017-Dec-11 04:25N 31°57' W 080°35'0 0.0
2017-Dec-11 03:49N 31°57' W 080°35'0 0.0
2017-Dec-11 03:25N 31°57' W 080°35'0 0.0
2017-Dec-11 02:55N 31°57' W 080°35'0 0.0
2017-Dec-11 02:25N 31°57' W 080°35'0 0.0
2017-Dec-11 01:55N 31°57' W 080°35'0 0.0
2017-Dec-11 01:19N 31°57' W 080°35'0 0.1
2017-Dec-11 00:55N 31°57' W 080°35'0 0.1
2017-Dec-11 00:25N 31°57' W 080°35'0 0.1
2017-Dec-10 23:55N 31°57' W 080°35'0 0.0
2017-Dec-10 23:13N 31°57' W 080°35'0 0.0
2017-Dec-10 22:49N 31°57' W 080°35'0 0.0
2017-Dec-10 22:25N 31°57' W 080°35'0 0.0
2017-Dec-10 21:37N 31°57' W 080°35'0 0.0
2017-Dec-10 20:07N 31°57' W 080°35'0 0.2
2017-Dec-10 19:55N 31°57' W 080°35'2 5.8
2017-Dec-10 19:29N 31°58' W 080°32'10814.4
2017-Dec-10 12:00N 32°42' W 078°36'8914.8 320 / 221022.0 5.4 7.0-4.623.8
2017-Dec-10 06:00N 33°36' W 077°12'8814.7 300 / 241014.4 5.4 6.0 3.624.0
2017-Dec-10 00:00N 34°30' W 075°48'13712.1 350 / 251011.3 2.2 8.0 5.823.9
2017-Dec-09 12:38N 36°47' W 075°44'4 9.6
2017-Dec-09 12:16N 36°49' W 075°48'4 9.4
2017-Dec-09 11:51N 36°51' W 075°52'3 9.2
2017-Dec-09 11:30N 36°54' W 075°55'7 9.3
2017-Dec-09 10:45N 36°57' W 076°02'2 8.9
2017-Dec-09 10:30N 36°58' W 076°05'4 8.7
2017-Dec-09 10:00N 36°59' W 076°10'810.1
2017-Dec-09 09:11N 36°58' W 076°20'2 9.0
2017-Dec-09 09:00N 36°56' W 076°20'4 8.1
2017-Dec-09 08:30N 36°52' W 076°19'1 1.0
2017-Dec-09 08:00N 36°51' W 076°20'0 0.0
2017-Dec-09 07:30N 36°51' W 076°20'0 0.0
2017-Dec-09 06:57N 36°51' W 076°20'0 0.0
2017-Dec-09 06:30N 36°51' W 076°20'0 0.0
2017-Dec-09 05:57N 36°51' W 076°20'0 0.0
2017-Dec-09 05:30N 36°51' W 076°20'0 0.0
2017-Dec-09 05:00N 36°51' W 076°20'0 0.0
2017-Dec-09 04:30N 36°51' W 076°20'0 0.0
2017-Dec-09 04:00N 36°51' W 076°20'0 0.0
2017-Dec-09 03:30N 36°51' W 076°20'0 0.0
2017-Dec-09 03:00N 36°51' W 076°20'0 0.0
2017-Dec-09 02:30N 36°51' W 076°20'0 0.0
2017-Dec-09 02:00N 36°51' W 076°20'0 0.0
2017-Dec-09 01:30N 36°51' W 076°20'0 0.0
2017-Dec-09 00:54N 36°51' W 076°20'0 0.0
2017-Dec-09 00:30N 36°51' W 076°20'0 0.0
2017-Dec-08 23:51N 36°51' W 076°20'0 0.0
2017-Dec-08 23:30N 36°51' W 076°20'0 0.0
2017-Dec-08 23:00N 36°51' W 076°20'0 0.0
2017-Dec-08 22:30N 36°51' W 076°20'0 0.0
2017-Dec-08 21:57N 36°51' W 076°20'0 0.0
2017-Dec-08 21:27N 36°51' W 076°20'0 0.0
2017-Dec-08 21:00N 36°51' W 076°20'0 0.0
2017-Dec-08 20:30N 36°51' W 076°20'0 0.0
2017-Dec-08 19:57N 36°51' W 076°20'0 0.0
2017-Dec-08 19:30N 36°51' W 076°20'0 0.0
2017-Dec-08 19:00N 36°51' W 076°20'0 0.0
2017-Dec-08 18:30N 36°51' W 076°20'0 0.0
2017-Dec-08 18:00N 36°51' W 076°20'0 0.0
2017-Dec-08 17:30N 36°51' W 076°20'0 0.0
2017-Dec-08 16:54N 36°51' W 076°20'0 0.0
2017-Dec-08 16:30N 36°51' W 076°20'0 0.0
2017-Dec-08 16:00N 36°51' W 076°20'0 0.0
2017-Dec-08 15:30N 36°51' W 076°20'0 0.0
2017-Dec-08 15:00N 36°51' W 076°20'0 0.2
2017-Dec-08 14:30N 36°51' W 076°20'2 3.8
2017-Dec-08 14:00N 36°53' W 076°20'5 9.5
2017-Dec-08 13:30N 36°58' W 076°20'611.1
2017-Dec-08 13:00N 37°00' W 076°14'816.5
2017-Dec-08 12:30N 36°58' W 076°04'3 6.2
2017-Dec-08 12:00N 36°60' W 076°01'11219.2
2017-Dec-08 06:11N 38°50' W 076°24'522.6
2017-Dec-08 05:59N 38°54' W 076°24'917.8
2017-Dec-08 05:29N 39°03' W 076°23'713.9
2017-Dec-08 05:00N 39°10' W 076°25'612.8
2017-Dec-08 04:30N 39°13' W 076°32'2 3.1
2017-Dec-08 04:00N 39°15' W 076°33'0 0.3
2017-Dec-08 03:30N 39°15' W 076°33'0 0.0
2017-Dec-08 03:00N 39°15' W 076°33'0 0.0
2017-Dec-08 02:30N 39°15' W 076°33'0 0.0
2017-Dec-08 01:59N 39°15' W 076°33'0 0.0
2017-Dec-08 01:29N 39°15' W 076°33'0 0.0
2017-Dec-08 00:59N 39°15' W 076°33'0 0.0
2017-Dec-08 00:29N 39°15' W 076°33'0 0.0
2017-Dec-07 23:59N 39°15' W 076°33'0 0.0
2017-Dec-07 23:29N 39°15' W 076°33'0 0.0
2017-Dec-07 22:56N 39°15' W 076°33'0 0.0
2017-Dec-07 22:29N 39°15' W 076°33'0 0.0
2017-Dec-07 21:59N 39°15' W 076°33'0 0.0
2017-Dec-07 21:29N 39°15' W 076°33'0 0.0
2017-Dec-07 20:59N 39°15' W 076°33'0 0.0
2017-Dec-07 20:29N 39°15' W 076°33'0 0.0
2017-Dec-07 19:59N 39°15' W 076°33'0 0.0
2017-Dec-07 19:29N 39°15' W 076°33'0 0.0
2017-Dec-07 18:59N 39°15' W 076°33'0 0.0
2017-Dec-07 18:29N 39°15' W 076°33'0 0.0
2017-Dec-07 17:59N 39°15' W 076°33'0 0.0
2017-Dec-07 17:29N 39°15' W 076°33'0 0.0
2017-Dec-07 16:59N 39°15' W 076°33'0 0.0
2017-Dec-07 16:29N 39°15' W 076°33'0 0.0
2017-Dec-07 15:59N 39°15' W 076°33'0 0.0
2017-Dec-07 15:29N 39°15' W 076°33'0 0.0
2017-Dec-07 14:59N 39°15' W 076°33'0 0.0
2017-Dec-07 14:29N 39°15' W 076°33'0 0.0
2017-Dec-07 13:59N 39°15' W 076°33'0 0.0
2017-Dec-07 13:29N 39°15' W 076°33'0 0.0
2017-Dec-07 12:59N 39°15' W 076°33'0 0.0
2017-Dec-07 12:29N 39°15' W 076°33'0 0.0
2017-Dec-07 11:59N 39°15' W 076°33'0 0.0
2017-Dec-07 11:29N 39°15' W 076°33'0 0.0
2017-Dec-07 10:59N 39°15' W 076°33'1 1.3
2017-Dec-07 10:31N 39°14' W 076°33'3 5.3
2017-Dec-07 10:00N 39°12' W 076°31'4 8.2
2017-Dec-07 09:30N 39°10' W 076°26'713.5
2017-Dec-07 09:00N 39°04' W 076°24'815.6
2017-Dec-07 08:30N 38°56' W 076°23'1020.0
2017-Dec-07 08:00N 38°46' W 076°26'3620.5
2017-Dec-07 06:16N 38°12' W 076°14'621.8
2017-Dec-07 05:58N 38°05' W 076°13'5719.0
2017-Dec-07 02:57N 37°08' W 076°08'919.5
2017-Dec-07 02:30N 37°01' W 076°03'611.3
2017-Dec-07 02:00N 36°57' W 075°58'4 7.9
2017-Dec-07 01:30N 36°54' W 075°54'4 8.6
2017-Dec-07 01:00N 36°52' W 075°50'6 9.4
2017-Dec-07 00:24N 36°49' W 075°43'109 8.1
2017-Dec-06 11:00N 38°18' W 074°24'   340 / 71014.9 5.4 11.0 9.014.9

Dump ship's entire track history